sensor_id;sensor_type;location;lat;lon;timestamp;P1;P2;P0
45871;PMS5003;32333;55.844;-3.210;2022-11-23T00:01:52;0;0;
45871;PMS5003;32333;55.844;-3.210;2022-11-23T00:04:22;0;0;
45871;PMS5003;32333;55.844;-3.210;2022-11-23T00:06:49;0;0;
45871;PMS5003;32333;55.844;-3.210;2022-11-23T00:09:17;0;0;
45871;PMS5003;32333;55.844;-3.210;2022-11-23T00:11:45;0;0;
45871;PMS5003;32333;55.844;-3.210;2022-11-23T00:14:35;0;0;
45871;PMS5003;32333;55.844;-3.210;2022-11-23T00:17:02;0;0;
45871;PMS5003;32333;55.844;-3.210;2022-11-23T00:19:30;0;0;
45871;PMS5003;32333;55.844;-3.210;2022-11-23T00:21:59;0;0;
45871;PMS5003;32333;55.844;-3.210;2022-11-23T00:24:27;0;0;
45871;PMS5003;32333;55.844;-3.210;2022-11-23T00:26:54;0;0;
45871;PMS5003;32333;55.844;-3.210;2022-11-23T00:29:24;0;0;
45871;PMS5003;32333;55.844;-3.210;2022-11-23T00:31:52;0;0;
45871;PMS5003;32333;55.844;-3.210;2022-11-23T00:34:19;0;0;
45871;PMS5003;32333;55.844;-3.210;2022-11-23T00:36:46;3;3;
45871;PMS5003;32333;55.844;-3.210;2022-11-23T00:39:16;0;0;
45871;PMS5003;32333;55.844;-3.210;2022-11-23T00:41:44;1;1;
45871;PMS5003;32333;55.844;-3.210;2022-11-23T00:44:35;1;1;
45871;PMS5003;32333;55.844;-3.210;2022-11-23T00:47:03;0;0;
45871;PMS5003;32333;55.844;-3.210;2022-11-23T00:49:30;0;0;
45871;PMS5003;32333;55.844;-3.210;2022-11-23T00:51:59;0;0;
45871;PMS5003;32333;55.844;-3.210;2022-11-23T00:54:26;0;0;
45871;PMS5003;32333;55.844;-3.210;2022-11-23T00:56:55;0;0;
45871;PMS5003;32333;55.844;-3.210;2022-11-23T00:59:24;0;0;
45871;PMS5003;32333;55.844;-3.210;2022-11-23T01:01:53;0;0;
45871;PMS5003;32333;55.844;-3.210;2022-11-23T01:04:20;0;0;
45871;PMS5003;32333;55.844;-3.210;2022-11-23T01:06:49;0;0;
45871;PMS5003;32333;55.844;-3.210;2022-11-23T01:09:20;0;0;
45871;PMS5003;32333;55.844;-3.210;2022-11-23T01:11:49;0;0;
45871;PMS5003;32333;55.844;-3.210;2022-11-23T01:14:35;0;0;
45871;PMS5003;32333;55.844;-3.210;2022-11-23T01:17:02;0;0;
45871;PMS5003;32333;55.844;-3.210;2022-11-23T01:19:30;0;0;
45871;PMS5003;32333;55.844;-3.210;2022-11-23T01:21:59;0;0;
45871;PMS5003;32333;55.844;-3.210;2022-11-23T01:24:27;0;0;
45871;PMS5003;32333;55.844;-3.210;2022-11-23T01:26:56;0;0;
45871;PMS5003;32333;55.844;-3.210;2022-11-23T01:29:24;0;0;
45871;PMS5003;32333;55.844;-3.210;2022-11-23T01:31:52;0;0;
45871;PMS5003;32333;55.844;-3.210;2022-11-23T01:34:20;0;0;
45871;PMS5003;32333;55.844;-3.210;2022-11-23T01:36:49;0;0;
45871;PMS5003;32333;55.844;-3.210;2022-11-23T01:39:17;0;0;
45871;PMS5003;32333;55.844;-3.210;2022-11-23T01:41:45;0;0;
45871;PMS5003;32333;55.844;-3.210;2022-11-23T01:46:13;0;0;
45871;PMS5003;32333;55.844;-3.210;2022-11-23T01:48:42;0;0;
45871;PMS5003;32333;55.844;-3.210;2022-11-23T01:51:13;0;0;
45871;PMS5003;32333;55.844;-3.210;2022-11-23T01:53:44;0;0;
45871;PMS5003;32333;55.844;-3.210;2022-11-23T01:59:03;0;0;
45871;PMS5003;32333;55.844;-3.210;2022-11-23T02:01:36;0;0;
45871;PMS5003;32333;55.844;-3.210;2022-11-23T02:04:06;1;1;
45871;PMS5003;32333;55.844;-3.210;2022-11-23T02:06:37;0;0;
45871;PMS5003;32333;55.844;-3.210;2022-11-23T02:09:06;0;0;
45871;PMS5003;32333;55.844;-3.210;2022-11-23T02:11:34;1;1;
45871;PMS5003;32333;55.844;-3.210;2022-11-23T02:14:34;0;0;
45871;PMS5003;32333;55.844;-3.210;2022-11-23T02:17:02;1;1;
45871;PMS5003;32333;55.844;-3.210;2022-11-23T02:19:34;0;0;
45871;PMS5003;32333;55.844;-3.210;2022-11-23T02:22:11;0;0;
45871;PMS5003;32333;55.844;-3.210;2022-11-23T02:24:45;1;1;
45871;PMS5003;32333;55.844;-3.210;2022-11-23T02:27:19;0;0;
45871;PMS5003;32333;55.844;-3.210;2022-11-23T02:29:48;0;0;
45871;PMS5003;32333;55.844;-3.210;2022-11-23T02:32:19;3;3;
45871;PMS5003;32333;55.844;-3.210;2022-11-23T02:34:50;1;1;
45871;PMS5003;32333;55.844;-3.210;2022-11-23T02:37:19;0;0;
45871;PMS5003;32333;55.844;-3.210;2022-11-23T02:39:48;0;0;
45871;PMS5003;32333;55.844;-3.210;2022-11-23T02:44:36;0;0;
45871;PMS5003;32333;55.844;-3.210;2022-11-23T05:51:09;10;10;
45871;PMS5003;32333;55.844;-3.210;2022-11-23T05:53:37;13;13;
45871;PMS5003;32333;55.844;-3.210;2022-11-23T05:56:05;15;15;
45871;PMS5003;32333;55.844;-3.210;2022-11-23T05:58:33;7;7;
45871;PMS5003;32333;55.844;-3.210;2022-11-23T06:01:01;12;12;
45871;PMS5003;32333;55.844;-3.210;2022-11-23T06:03:30;10;10;
45871;PMS5003;32333;55.844;-3.210;2022-11-23T06:05:58;6;6;
45871;PMS5003;32333;55.844;-3.210;2022-11-23T06:08:26;19;19;
45871;PMS5003;32333;55.844;-3.210;2022-11-23T06:10:54;12;12;
45871;PMS5003;32333;55.844;-3.210;2022-11-23T06:14:40;10;10;
45871;PMS5003;32333;55.844;-3.210;2022-11-23T06:17:08;10;10;
45871;PMS5003;32333;55.844;-3.210;2022-11-23T06:19:36;18;18;
45871;PMS5003;32333;55.844;-3.210;2022-11-23T06:22:05;25;24;
45871;PMS5003;32333;55.844;-3.210;2022-11-23T06:24:33;25;25;
45871;PMS5003;32333;55.844;-3.210;2022-11-23T06:27:01;3;3;
45871;PMS5003;32333;55.844;-3.210;2022-11-23T06:29:29;45;45;
45871;PMS5003;32333;55.844;-3.210;2022-11-23T06:31:57;40;40;
45871;PMS5003;32333;55.844;-3.210;2022-11-23T06:34:24;27;27;
45871;PMS5003;32333;55.844;-3.210;2022-11-23T06:36:52;16;15;
45871;PMS5003;32333;55.844;-3.210;2022-11-23T06:39:21;7;7;
45871;PMS5003;32333;55.844;-3.210;2022-11-23T06:41:51;4;3;
45871;PMS5003;32333;55.844;-3.210;2022-11-23T06:44:35;0;0;
45871;PMS5003;32333;55.844;-3.210;2022-11-23T06:47:03;0;0;
45871;PMS5003;32333;55.844;-3.210;2022-11-23T06:49:31;0;0;
45871;PMS5003;32333;55.844;-3.210;2022-11-23T06:52:00;0;0;
45871;PMS5003;32333;55.844;-3.210;2022-11-23T06:54:27;0;0;
45871;PMS5003;32333;55.844;-3.210;2022-11-23T06:56:55;0;0;
45871;PMS5003;32333;55.844;-3.210;2022-11-23T06:59:24;0;0;
45871;PMS5003;32333;55.844;-3.210;2022-11-23T07:01:52;0;0;
45871;PMS5003;32333;55.844;-3.210;2022-11-23T07:04:20;0;0;
45871;PMS5003;32333;55.844;-3.210;2022-11-23T07:06:48;0;0;
45871;PMS5003;32333;55.844;-3.210;2022-11-23T07:14:35;0;0;
45871;PMS5003;32333;55.844;-3.210;2022-11-23T07:17:04;0;0;
45871;PMS5003;32333;55.844;-3.210;2022-11-23T07:19:32;0;0;
45871;PMS5003;32333;55.844;-3.210;2022-11-23T07:22:11;1;1;
45871;PMS5003;32333;55.844;-3.210;2022-11-23T07:24:40;0;0;
45871;PMS5003;32333;55.844;-3.210;2022-11-23T07:27:10;1;0;
45871;PMS5003;32333;55.844;-3.210;2022-11-23T07:29:38;3;3;
45871;PMS5003;32333;55.844;-3.210;2022-11-23T07:32:07;0;0;
45871;PMS5003;32333;55.844;-3.210;2022-11-23T07:34:35;0;0;
45871;PMS5003;32333;55.844;-3.210;2022-11-23T07:37:02;1;1;
45871;PMS5003;32333;55.844;-3.210;2022-11-23T07:39:30;0;0;
45871;PMS5003;32333;55.844;-3.210;2022-11-23T07:41:57;0;0;
45871;PMS5003;32333;55.844;-3.210;2022-11-23T07:44:35;1;1;
45871;PMS5003;32333;55.844;-3.210;2022-11-23T07:47:03;0;0;
45871;PMS5003;32333;55.844;-3.210;2022-11-23T07:49:30;0;0;
45871;PMS5003;32333;55.844;-3.210;2022-11-23T07:51:59;0;0;
45871;PMS5003;32333;55.844;-3.210;2022-11-23T07:54:27;0;0;
45871;PMS5003;32333;55.844;-3.210;2022-11-23T07:56:54;0;0;
45871;PMS5003;32333;55.844;-3.210;2022-11-23T07:59:23;1;1;
45871;PMS5003;32333;55.844;-3.210;2022-11-23T08:01:50;0;0;
45871;PMS5003;32333;55.844;-3.210;2022-11-23T08:04:18;1;1;
45871;PMS5003;32333;55.844;-3.210;2022-11-23T08:06:45;1;1;
45871;PMS5003;32333;55.844;-3.210;2022-11-23T08:09:13;0;0;
45871;PMS5003;32333;55.844;-3.210;2022-11-23T08:11:41;1;1;
45871;PMS5003;32333;55.844;-3.210;2022-11-23T08:14:35;1;1;
45871;PMS5003;32333;55.844;-3.210;2022-11-23T08:17:04;0;0;
45871;PMS5003;32333;55.844;-3.210;2022-11-23T08:19:32;0;0;
45871;PMS5003;32333;55.844;-3.210;2022-11-23T08:22:00;0;0;
45871;PMS5003;32333;55.844;-3.210;2022-11-23T08:24:28;0;0;
45871;PMS5003;32333;55.844;-3.210;2022-11-23T08:26:56;0;0;
45871;PMS5003;32333;55.844;-3.210;2022-11-23T08:29:24;0;0;
45871;PMS5003;32333;55.844;-3.210;2022-11-23T08:31:52;1;1;
45871;PMS5003;32333;55.844;-3.210;2022-11-23T08:34:20;1;1;
45871;PMS5003;32333;55.844;-3.210;2022-11-23T08:36:49;0;0;
45871;PMS5003;32333;55.844;-3.210;2022-11-23T08:39:17;1;1;
45871;PMS5003;32333;55.844;-3.210;2022-11-23T08:41:45;0;0;
45871;PMS5003;32333;55.844;-3.210;2022-11-23T08:44:35;1;1;
45871;PMS5003;32333;55.844;-3.210;2022-11-23T08:47:02;0;0;
45871;PMS5003;32333;55.844;-3.210;2022-11-23T08:49:30;0;0;
45871;PMS5003;32333;55.844;-3.210;2022-11-23T08:51:57;0;0;
45871;PMS5003;32333;55.844;-3.210;2022-11-23T08:54:25;1;1;
45871;PMS5003;32333;55.844;-3.210;2022-11-23T08:56:53;1;1;
45871;PMS5003;32333;55.844;-3.210;2022-11-23T08:59:21;3;1;
45871;PMS5003;32333;55.844;-3.210;2022-11-23T09:01:49;1;1;
45871;PMS5003;32333;55.844;-3.210;2022-11-23T09:04:17;0;0;
45871;PMS5003;32333;55.844;-3.210;2022-11-23T09:06:44;4;4;
45871;PMS5003;32333;55.844;-3.210;2022-11-23T09:09:12;1;1;
45871;PMS5003;32333;55.844;-3.210;2022-11-23T09:11:41;1;1;
45871;PMS5003;32333;55.844;-3.210;2022-11-23T09:14:35;1;1;
45871;PMS5003;32333;55.844;-3.210;2022-11-23T09:17:03;3;3;
45871;PMS5003;32333;55.844;-3.210;2022-11-23T09:19:31;6;6;
45871;PMS5003;32333;55.844;-3.210;2022-11-23T09:21:59;3;1;
45871;PMS5003;32333;55.844;-3.210;2022-11-23T09:24:27;6;4;
45871;PMS5003;32333;55.844;-3.210;2022-11-23T09:26:54;3;3;
45871;PMS5003;32333;55.844;-3.210;2022-11-23T09:29:24;1;1;
45871;PMS5003;32333;55.844;-3.210;2022-11-23T09:31:52;1;1;
45871;PMS5003;32333;55.844;-3.210;2022-11-23T09:34:19;0;0;
45871;PMS5003;32333;55.844;-3.210;2022-11-23T09:36:49;0;0;
45871;PMS5003;32333;55.844;-3.210;2022-11-23T09:39:17;3;3;
45871;PMS5003;32333;55.844;-3.210;2022-11-23T09:41:49;0;0;
45871;PMS5003;32333;55.844;-3.210;2022-11-23T09:44:39;0;0;
45871;PMS5003;32333;55.844;-3.210;2022-11-23T09:47:25;3;3;
45871;PMS5003;32333;55.844;-3.210;2022-11-23T09:50:07;1;1;
45871;PMS5003;32333;55.844;-3.210;2022-11-23T09:52:39;3;1;
45871;PMS5003;32333;55.844;-3.210;2022-11-23T09:55:12;3;1;
45871;PMS5003;32333;55.844;-3.210;2022-11-23T09:57:45;0;0;
45871;PMS5003;32333;55.844;-3.210;2022-11-23T10:00:16;1;1;
45871;PMS5003;32333;55.844;-3.210;2022-11-23T10:02:47;0;0;
45871;PMS5003;32333;55.844;-3.210;2022-11-23T10:05:17;3;3;
45871;PMS5003;32333;55.844;-3.210;2022-11-23T10:07:51;0;0;
45871;PMS5003;32333;55.844;-3.210;2022-11-23T10:10:35;1;1;
45871;PMS5003;32333;55.844;-3.210;2022-11-23T10:14:41;3;3;
45871;PMS5003;32333;55.844;-3.210;2022-11-23T10:17:22;0;0;
45871;PMS5003;32333;55.844;-3.210;2022-11-23T10:20:00;0;0;
45871;PMS5003;32333;55.844;-3.210;2022-11-23T10:22:45;0;0;
45871;PMS5003;32333;55.844;-3.210;2022-11-23T10:25:18;0;0;
45871;PMS5003;32333;55.844;-3.210;2022-11-23T10:27:48;0;0;
45871;PMS5003;32333;55.844;-3.210;2022-11-23T10:30:18;0;0;
45871;PMS5003;32333;55.844;-3.210;2022-11-23T10:32:48;0;0;
45871;PMS5003;32333;55.844;-3.210;2022-11-23T10:35:24;0;0;
45871;PMS5003;32333;55.844;-3.210;2022-11-23T10:38:00;0;0;
45871;PMS5003;32333;55.844;-3.210;2022-11-23T10:40:36;0;0;
45871;PMS5003;32333;55.844;-3.210;2022-11-23T10:44:36;0;0;
45871;PMS5003;32333;55.844;-3.210;2022-11-23T10:47:18;0;0;
45871;PMS5003;32333;55.844;-3.210;2022-11-23T10:50:18;0;0;
45871;PMS5003;32333;55.844;-3.210;2022-11-23T10:52:50;1;0;
45871;PMS5003;32333;55.844;-3.210;2022-11-23T10:55:23;0;0;
45871;PMS5003;32333;55.844;-3.210;2022-11-23T10:57:54;0;0;
45871;PMS5003;32333;55.844;-3.210;2022-11-23T11:00:23;0;0;
45871;PMS5003;32333;55.844;-3.210;2022-11-23T11:02:54;0;0;
45871;PMS5003;32333;55.844;-3.210;2022-11-23T11:05:26;0;0;
45871;PMS5003;32333;55.844;-3.210;2022-11-23T11:07:58;0;0;
45871;PMS5003;32333;55.844;-3.210;2022-11-23T11:10:34;0;0;
45871;PMS5003;32333;55.844;-3.210;2022-11-23T11:14:35;1;1;
45871;PMS5003;32333;55.844;-3.210;2022-11-23T11:17:03;1;0;
45871;PMS5003;32333;55.844;-3.210;2022-11-23T11:19:50;0;0;
45871;PMS5003;32333;55.844;-3.210;2022-11-23T11:22:27;0;0;
45871;PMS5003;32333;55.844;-3.210;2022-11-23T11:25:01;0;0;
45871;PMS5003;32333;55.844;-3.210;2022-11-23T11:27:30;0;0;
45871;PMS5003;32333;55.844;-3.210;2022-11-23T11:30:03;0;0;
45871;PMS5003;32333;55.844;-3.210;2022-11-23T11:32:36;1;1;
45871;PMS5003;32333;55.844;-3.210;2022-11-23T11:35:12;0;0;
45871;PMS5003;32333;55.844;-3.210;2022-11-23T11:37:46;0;0;
45871;PMS5003;32333;55.844;-3.210;2022-11-23T11:40:18;0;0;
45871;PMS5003;32333;55.844;-3.210;2022-11-23T11:44:36;1;1;
45871;PMS5003;32333;55.844;-3.210;2022-11-23T11:47:16;0;0;
45871;PMS5003;32333;55.844;-3.210;2022-11-23T11:49:52;0;0;
45871;PMS5003;32333;55.844;-3.210;2022-11-23T11:52:24;0;0;
45871;PMS5003;32333;55.844;-3.210;2022-11-23T11:55:00;0;0;
45871;PMS5003;32333;55.844;-3.210;2022-11-23T11:57:40;0;0;
45871;PMS5003;32333;55.844;-3.210;2022-11-23T12:00:13;22;22;
45871;PMS5003;32333;55.844;-3.210;2022-11-23T12:02:48;0;0;
45871;PMS5003;32333;55.844;-3.210;2022-11-23T12:05:27;0;0;
45871;PMS5003;32333;55.844;-3.210;2022-11-23T12:08:04;0;0;
45871;PMS5003;32333;55.844;-3.210;2022-11-23T12:10:39;0;0;
45871;PMS5003;32333;55.844;-3.210;2022-11-23T12:14:35;0;0;
45871;PMS5003;32333;55.844;-3.210;2022-11-23T12:17:07;0;0;
45871;PMS5003;32333;55.844;-3.210;2022-11-23T12:19:55;0;0;
45871;PMS5003;32333;55.844;-3.210;2022-11-23T12:22:34;0;0;
45871;PMS5003;32333;55.844;-3.210;2022-11-23T12:25:15;0;0;
45871;PMS5003;32333;55.844;-3.210;2022-11-23T12:27:58;0;0;
45871;PMS5003;32333;55.844;-3.210;2022-11-23T12:30:36;0;0;
45871;PMS5003;32333;55.844;-3.210;2022-11-23T12:33:15;0;0;
45871;PMS5003;32333;55.844;-3.210;2022-11-23T12:36:05;0;0;
45871;PMS5003;32333;55.844;-3.210;2022-11-23T12:38:49;0;0;
45871;PMS5003;32333;55.844;-3.210;2022-11-23T12:41:23;0;0;
45871;PMS5003;32333;55.844;-3.210;2022-11-23T12:45:14;0;0;
45871;PMS5003;32333;55.844;-3.210;2022-11-23T12:47:55;0;0;
45871;PMS5003;32333;55.844;-3.210;2022-11-23T12:50:33;0;0;
45871;PMS5003;32333;55.844;-3.210;2022-11-23T12:53:18;0;0;
45871;PMS5003;32333;55.844;-3.210;2022-11-23T12:59:45;0;0;
45871;PMS5003;32333;55.844;-3.210;2022-11-23T13:02:25;0;0;
45871;PMS5003;32333;55.844;-3.210;2022-11-23T13:05:23;0;0;
45871;PMS5003;32333;55.844;-3.210;2022-11-23T13:08:14;0;0;
45871;PMS5003;32333;55.844;-3.210;2022-11-23T13:11:04;0;0;
45871;PMS5003;32333;55.844;-3.210;2022-11-23T13:14:38;0;0;
45871;PMS5003;32333;55.844;-3.210;2022-11-23T13:17:18;0;0;
45871;PMS5003;32333;55.844;-3.210;2022-11-23T13:19:59;0;0;
45871;PMS5003;32333;55.844;-3.210;2022-11-23T13:22:38;0;0;
45871;PMS5003;32333;55.844;-3.210;2022-11-23T13:25:24;0;0;
45871;PMS5003;32333;55.844;-3.210;2022-11-23T13:27:56;0;0;
45871;PMS5003;32333;55.844;-3.210;2022-11-23T13:30:29;0;0;
45871;PMS5003;32333;55.844;-3.210;2022-11-23T13:33:00;0;0;
45871;PMS5003;32333;55.844;-3.210;2022-11-23T13:35:55;0;0;
45871;PMS5003;32333;55.844;-3.210;2022-11-23T13:38:26;0;0;
45871;PMS5003;32333;55.844;-3.210;2022-11-23T13:41:03;0;0;
45871;PMS5003;32333;55.844;-3.210;2022-11-23T13:44:35;0;0;
45871;PMS5003;32333;55.844;-3.210;2022-11-23T13:47:06;0;0;
45871;PMS5003;32333;55.844;-3.210;2022-11-23T13:49:46;0;0;
45871;PMS5003;32333;55.844;-3.210;2022-11-23T13:52:21;0;0;
45871;PMS5003;32333;55.844;-3.210;2022-11-23T13:54:54;0;0;
45871;PMS5003;32333;55.844;-3.210;2022-11-23T13:57:28;0;0;
45871;PMS5003;32333;55.844;-3.210;2022-11-23T14:00:43;0;0;
45871;PMS5003;32333;55.844;-3.210;2022-11-23T14:03:49;0;0;
45871;PMS5003;32333;55.844;-3.210;2022-11-23T14:06:37;0;0;
45871;PMS5003;32333;55.844;-3.210;2022-11-23T14:09:13;0;0;
45871;PMS5003;32333;55.844;-3.210;2022-11-23T14:14:42;0;0;
45871;PMS5003;32333;55.844;-3.210;2022-11-23T14:22:59;0;0;
45871;PMS5003;32333;55.844;-3.210;2022-11-23T14:25:48;0;0;
45871;PMS5003;32333;55.844;-3.210;2022-11-23T14:28:32;0;0;
45871;PMS5003;32333;55.844;-3.210;2022-11-23T14:31:15;0;0;
45871;PMS5003;32333;55.844;-3.210;2022-11-23T14:33:58;0;0;
45871;PMS5003;32333;55.844;-3.210;2022-11-23T14:36:36;0;0;
45871;PMS5003;32333;55.844;-3.210;2022-11-23T14:39:26;0;0;
45871;PMS5003;32333;55.844;-3.210;2022-11-23T14:44:35;0;0;
45871;PMS5003;32333;55.844;-3.210;2022-11-23T14:47:05;0;0;
45871;PMS5003;32333;55.844;-3.210;2022-11-23T14:49:34;0;0;
45871;PMS5003;32333;55.844;-3.210;2022-11-23T14:52:04;0;0;
45871;PMS5003;32333;55.844;-3.210;2022-11-23T14:54:32;0;0;
45871;PMS5003;32333;55.844;-3.210;2022-11-23T14:57:01;0;0;
45871;PMS5003;32333;55.844;-3.210;2022-11-23T14:59:31;0;0;
45871;PMS5003;32333;55.844;-3.210;2022-11-23T15:02:03;0;0;
45871;PMS5003;32333;55.844;-3.210;2022-11-23T15:04:50;0;0;
45871;PMS5003;32333;55.844;-3.210;2022-11-23T15:07:26;0;0;
45871;PMS5003;32333;55.844;-3.210;2022-11-23T15:10:01;0;0;
45871;PMS5003;32333;55.844;-3.210;2022-11-23T15:14:41;0;0;
45871;PMS5003;32333;55.844;-3.210;2022-11-23T15:17:13;0;0;
45871;PMS5003;32333;55.844;-3.210;2022-11-23T15:19:52;0;0;
45871;PMS5003;32333;55.844;-3.210;2022-11-23T15:22:21;0;0;
45871;PMS5003;32333;55.844;-3.210;2022-11-23T15:24:49;4;3;
45871;PMS5003;32333;55.844;-3.210;2022-11-23T15:27:19;1;1;
45871;PMS5003;32333;55.844;-3.210;2022-11-23T15:29:53;1;1;
45871;PMS5003;32333;55.844;-3.210;2022-11-23T15:32:24;0;0;
45871;PMS5003;32333;55.844;-3.210;2022-11-23T15:34:54;1;1;
45871;PMS5003;32333;55.844;-3.210;2022-11-23T15:37:24;1;1;
45871;PMS5003;32333;55.844;-3.210;2022-11-23T15:39:55;4;3;
45871;PMS5003;32333;55.844;-3.210;2022-11-23T15:44:35;3;3;
45871;PMS5003;32333;55.844;-3.210;2022-11-23T15:47:06;1;1;
45871;PMS5003;32333;55.844;-3.210;2022-11-23T15:49:39;3;3;
45871;PMS5003;32333;55.844;-3.210;2022-11-23T15:52:09;1;1;
45871;PMS5003;32333;55.844;-3.210;2022-11-23T15:54:40;0;0;
45871;PMS5003;32333;55.844;-3.210;2022-11-23T15:57:11;0;0;
45871;PMS5003;32333;55.844;-3.210;2022-11-23T15:59:45;0;0;
45871;PMS5003;32333;55.844;-3.210;2022-11-23T16:02:16;0;0;
45871;PMS5003;32333;55.844;-3.210;2022-11-23T16:04:48;0;0;
45871;PMS5003;32333;55.844;-3.210;2022-11-23T16:07:31;0;0;
45871;PMS5003;32333;55.844;-3.210;2022-11-23T16:10:17;0;0;
45871;PMS5003;32333;55.844;-3.210;2022-11-23T16:14:35;0;0;
45871;PMS5003;32333;55.844;-3.210;2022-11-23T16:17:04;0;0;
45871;PMS5003;32333;55.844;-3.210;2022-11-23T16:19:42;0;0;
45871;PMS5003;32333;55.844;-3.210;2022-11-23T16:22:16;0;0;
45871;PMS5003;32333;55.844;-3.210;2022-11-23T16:24:49;0;0;
45871;PMS5003;32333;55.844;-3.210;2022-11-23T16:27:21;0;0;
45871;PMS5003;32333;55.844;-3.210;2022-11-23T16:29:50;0;0;
45871;PMS5003;32333;55.844;-3.210;2022-11-23T16:32:21;0;0;
45871;PMS5003;32333;55.844;-3.210;2022-11-23T16:34:50;0;0;
45871;PMS5003;32333;55.844;-3.210;2022-11-23T16:37:18;0;0;
45871;PMS5003;32333;55.844;-3.210;2022-11-23T16:39:46;1;0;
45871;PMS5003;32333;55.844;-3.210;2022-11-23T16:44:35;0;0;
45871;PMS5003;32333;55.844;-3.210;2022-11-23T16:47:11;0;0;
45871;PMS5003;32333;55.844;-3.210;2022-11-23T16:49:47;0;0;
45871;PMS5003;32333;55.844;-3.210;2022-11-23T16:52:15;0;0;
45871;PMS5003;32333;55.844;-3.210;2022-11-23T16:54:44;0;0;
45871;PMS5003;32333;55.844;-3.210;2022-11-23T16:57:16;0;0;
45871;PMS5003;32333;55.844;-3.210;2022-11-23T16:59:49;0;0;
45871;PMS5003;32333;55.844;-3.210;2022-11-23T17:02:17;0;0;
45871;PMS5003;32333;55.844;-3.210;2022-11-23T17:04:45;0;0;
45871;PMS5003;32333;55.844;-3.210;2022-11-23T17:07:21;0;0;
45871;PMS5003;32333;55.844;-3.210;2022-11-23T17:15:57;0;0;
45871;PMS5003;32333;55.844;-3.210;2022-11-23T17:23:21;0;0;
45871;PMS5003;32333;55.844;-3.210;2022-11-23T17:25:50;0;0;
45871;PMS5003;32333;55.844;-3.210;2022-11-23T17:28:30;0;0;
45871;PMS5003;32333;55.844;-3.210;2022-11-23T17:31:00;0;0;
45871;PMS5003;32333;55.844;-3.210;2022-11-23T17:33:35;0;0;
45871;PMS5003;32333;55.844;-3.210;2022-11-23T17:36:03;0;0;
45871;PMS5003;32333;55.844;-3.210;2022-11-23T17:38:31;0;0;
45871;PMS5003;32333;55.844;-3.210;2022-11-23T17:40:59;0;0;
45871;PMS5003;32333;55.844;-3.210;2022-11-23T17:44:53;0;0;
45871;PMS5003;32333;55.844;-3.210;2022-11-23T17:47:23;0;0;
45871;PMS5003;32333;55.844;-3.210;2022-11-23T17:49:54;0;0;
45871;PMS5003;32333;55.844;-3.210;2022-11-23T17:52:23;0;0;
45871;PMS5003;32333;55.844;-3.210;2022-11-23T17:54:50;0;0;
45871;PMS5003;32333;55.844;-3.210;2022-11-23T17:57:21;0;0;
45871;PMS5003;32333;55.844;-3.210;2022-11-23T17:59:58;3;3;
45871;PMS5003;32333;55.844;-3.210;2022-11-23T18:02:28;0;0;
45871;PMS5003;32333;55.844;-3.210;2022-11-23T18:04:56;0;0;
45871;PMS5003;32333;55.844;-3.210;2022-11-23T18:07:24;0;0;
45871;PMS5003;32333;55.844;-3.210;2022-11-23T18:09:53;0;0;
45871;PMS5003;32333;55.844;-3.210;2022-11-23T18:14:35;0;0;
45871;PMS5003;32333;55.844;-3.210;2022-11-23T18:17:03;0;0;
45871;PMS5003;32333;55.844;-3.210;2022-11-23T18:19:31;0;0;
45871;PMS5003;32333;55.844;-3.210;2022-11-23T18:22:02;0;0;
45871;PMS5003;32333;55.844;-3.210;2022-11-23T18:24:31;0;0;
45871;PMS5003;32333;55.844;-3.210;2022-11-23T18:27:00;0;0;
45871;PMS5003;32333;55.844;-3.210;2022-11-23T18:29:32;0;0;
45871;PMS5003;32333;55.844;-3.210;2022-11-23T18:32:01;0;0;
45871;PMS5003;32333;55.844;-3.210;2022-11-23T18:34:31;0;0;
45871;PMS5003;32333;55.844;-3.210;2022-11-23T18:37:00;0;0;
45871;PMS5003;32333;55.844;-3.210;2022-11-23T18:39:29;0;0;
45871;PMS5003;32333;55.844;-3.210;2022-11-23T18:41:59;0;0;
45871;PMS5003;32333;55.844;-3.210;2022-11-23T18:44:35;0;0;
45871;PMS5003;32333;55.844;-3.210;2022-11-23T18:47:02;0;0;
45871;PMS5003;32333;55.844;-3.210;2022-11-23T18:49:31;0;0;
45871;PMS5003;32333;55.844;-3.210;2022-11-23T18:52:00;0;0;
45871;PMS5003;32333;55.844;-3.210;2022-11-23T18:54:28;0;0;
45871;PMS5003;32333;55.844;-3.210;2022-11-23T18:56:55;0;0;
45871;PMS5003;32333;55.844;-3.210;2022-11-23T18:59:24;0;0;
45871;PMS5003;32333;55.844;-3.210;2022-11-23T19:01:51;0;0;
45871;PMS5003;32333;55.844;-3.210;2022-11-23T19:04:18;0;0;
45871;PMS5003;32333;55.844;-3.210;2022-11-23T19:06:46;0;0;
45871;PMS5003;32333;55.844;-3.210;2022-11-23T19:09:14;0;0;
45871;PMS5003;32333;55.844;-3.210;2022-11-23T19:11:41;0;0;
45871;PMS5003;32333;55.844;-3.210;2022-11-23T19:14:35;0;0;
45871;PMS5003;32333;55.844;-3.210;2022-11-23T19:17:03;0;0;
45871;PMS5003;32333;55.844;-3.210;2022-11-23T19:19:31;1;1;
45871;PMS5003;32333;55.844;-3.210;2022-11-23T19:21:59;0;0;
45871;PMS5003;32333;55.844;-3.210;2022-11-23T19:24:26;0;0;
45871;PMS5003;32333;55.844;-3.210;2022-11-23T19:26:54;0;0;
45871;PMS5003;32333;55.844;-3.210;2022-11-23T19:29:21;0;0;
45871;PMS5003;32333;55.844;-3.210;2022-11-23T19:31:50;0;0;
45871;PMS5003;32333;55.844;-3.210;2022-11-23T19:34:17;0;0;
45871;PMS5003;32333;55.844;-3.210;2022-11-23T19:36:45;0;0;
45871;PMS5003;32333;55.844;-3.210;2022-11-23T19:39:13;0;0;
45871;PMS5003;32333;55.844;-3.210;2022-11-23T19:41:40;0;0;
45871;PMS5003;32333;55.844;-3.210;2022-11-23T19:44:35;0;0;
45871;PMS5003;32333;55.844;-3.210;2022-11-23T19:47:03;0;0;
45871;PMS5003;32333;55.844;-3.210;2022-11-23T19:49:30;0;0;
45871;PMS5003;32333;55.844;-3.210;2022-11-23T19:51:59;0;0;
45871;PMS5003;32333;55.844;-3.210;2022-11-23T19:54:26;0;0;
45871;PMS5003;32333;55.844;-3.210;2022-11-23T19:56:55;0;0;
45871;PMS5003;32333;55.844;-3.210;2022-11-23T19:59:24;0;0;
45871;PMS5003;32333;55.844;-3.210;2022-11-23T20:01:51;0;0;
45871;PMS5003;32333;55.844;-3.210;2022-11-23T20:04:22;0;0;
45871;PMS5003;32333;55.844;-3.210;2022-11-23T20:06:49;0;0;
45871;PMS5003;32333;55.844;-3.210;2022-11-23T20:09:17;0;0;
45871;PMS5003;32333;55.844;-3.210;2022-11-23T20:11:46;0;0;
45871;PMS5003;32333;55.844;-3.210;2022-11-23T20:14:35;0;0;
45871;PMS5003;32333;55.844;-3.210;2022-11-23T20:17:03;0;0;
45871;PMS5003;32333;55.844;-3.210;2022-11-23T20:19:31;0;0;
45871;PMS5003;32333;55.844;-3.210;2022-11-23T20:22:00;0;0;
45871;PMS5003;32333;55.844;-3.210;2022-11-23T20:24:28;0;0;
45871;PMS5003;32333;55.844;-3.210;2022-11-23T20:26:55;0;0;
45871;PMS5003;32333;55.844;-3.210;2022-11-23T20:29:24;0;0;
45871;PMS5003;32333;55.844;-3.210;2022-11-23T20:31:52;0;0;
45871;PMS5003;32333;55.844;-3.210;2022-11-23T20:34:20;0;0;
45871;PMS5003;32333;55.844;-3.210;2022-11-23T20:36:48;0;0;
45871;PMS5003;32333;55.844;-3.210;2022-11-23T20:39:20;0;0;
45871;PMS5003;32333;55.844;-3.210;2022-11-23T20:41:48;0;0;
45871;PMS5003;32333;55.844;-3.210;2022-11-23T20:44:35;0;0;
45871;PMS5003;32333;55.844;-3.210;2022-11-23T20:47:03;0;0;
45871;PMS5003;32333;55.844;-3.210;2022-11-23T20:49:30;0;0;
45871;PMS5003;32333;55.844;-3.210;2022-11-23T20:51:59;0;0;
45871;PMS5003;32333;55.844;-3.210;2022-11-23T20:54:26;0;0;
45871;PMS5003;32333;55.844;-3.210;2022-11-23T20:56:54;0;0;
45871;PMS5003;32333;55.844;-3.210;2022-11-23T20:59:21;0;0;
45871;PMS5003;32333;55.844;-3.210;2022-11-23T21:01:49;0;0;
45871;PMS5003;32333;55.844;-3.210;2022-11-23T21:04:16;0;0;
45871;PMS5003;32333;55.844;-3.210;2022-11-23T21:06:45;0;0;
45871;PMS5003;32333;55.844;-3.210;2022-11-23T21:09:13;0;0;
45871;PMS5003;32333;55.844;-3.210;2022-11-23T21:11:40;0;0;
45871;PMS5003;32333;55.844;-3.210;2022-11-23T21:14:35;0;0;